createdAt,value
2023-02-07T00:01:26.137Z,12.95
2023-02-07T00:03:55.245Z,9.10
2023-02-07T00:06:31.847Z,9.05
2023-02-07T00:09:03.008Z,5.57
2023-02-07T00:11:30.864Z,4.13
2023-02-07T00:13:59.711Z,4.28
2023-02-07T00:16:28.344Z,4.50
2023-02-07T00:18:59.066Z,5.10
2023-02-07T00:21:27.986Z,7.63
2023-02-07T00:23:55.654Z,5.38
2023-02-07T00:26:25.809Z,6.63
2023-02-07T00:28:55.798Z,4.38
2023-02-07T00:31:30.116Z,5.53
2023-02-07T00:34:01.792Z,7.07
2023-02-07T00:36:33.405Z,6.55
2023-02-07T00:39:05.364Z,4.63
2023-02-07T00:41:33.710Z,8.60
2023-02-07T00:44:01.369Z,7.88
2023-02-07T00:46:29.764Z,4.80
2023-02-07T00:48:57.735Z,2.55
2023-02-07T00:51:28.155Z,4.47
2023-02-07T00:53:57.061Z,6.97
2023-02-07T00:56:27.382Z,5.70
2023-02-07T00:58:55.385Z,4.10
2023-02-07T01:01:24.778Z,5.75
2023-02-07T01:03:52.591Z,4.65
2023-02-07T01:06:20.614Z,3.25
2023-02-07T01:08:48.295Z,6.13
2023-02-07T01:11:18.101Z,9.38
2023-02-07T01:13:45.914Z,3.95
2023-02-07T01:16:27.520Z,4.18
2023-02-07T01:18:55.685Z,5.38
2023-02-07T01:21:25.261Z,2.60
2023-02-07T01:23:56.695Z,8.93
2023-02-07T01:26:25.505Z,5.85
2023-02-07T01:28:55.152Z,4.07
2023-02-07T01:31:23.597Z,6.80
2023-02-07T01:33:56.201Z,5.93
2023-02-07T01:36:25.834Z,2.42
2023-02-07T01:38:54.717Z,4.03
2023-02-07T01:41:24.026Z,4.53
2023-02-07T01:44:04.950Z,8.95
2023-02-07T01:46:34.654Z,5.28
2023-02-07T01:49:10.036Z,6.00
2023-02-07T01:51:39.001Z,2.83
2023-02-07T01:54:10.030Z,5.25
2023-02-07T01:56:42.970Z,8.02
2023-02-07T01:59:10.834Z,7.07
2023-02-07T02:01:42.184Z,7.45
2023-02-07T02:04:09.837Z,6.30
2023-02-07T02:06:39.192Z,5.03
2023-02-07T02:09:12.431Z,6.82
2023-02-07T02:11:48.879Z,7.72
2023-02-07T02:14:16.832Z,4.28
2023-02-07T02:17:05.788Z,3.20
2023-02-07T02:19:51.999Z,4.63
2023-02-07T02:22:34.833Z,7.97
2023-02-07T02:25:24.133Z,4.43
2023-02-07T02:28:03.620Z,4.80
2023-02-07T02:30:46.444Z,4.80
2023-02-07T02:33:50.910Z,4.97
2023-02-07T02:36:36.457Z,2.97
2023-02-07T02:39:23.374Z,4.60
2023-02-07T02:42:09.568Z,3.63
2023-02-07T02:44:47.249Z,3.45
2023-02-07T02:47:15.880Z,3.35
2023-02-07T02:49:44.783Z,4.95
2023-02-07T02:52:12.388Z,5.78
2023-02-07T02:54:41.916Z,6.28
2023-02-07T02:58:12.841Z,6.53
2023-02-07T03:00:43.076Z,5.93
2023-02-07T03:03:42.031Z,2.10
2023-02-07T03:06:33.567Z,9.30
2023-02-07T03:09:19.482Z,4.28
2023-02-07T03:12:03.398Z,4.43
2023-02-07T03:14:59.838Z,3.25
2023-02-07T03:17:53.730Z,4.13
2023-02-07T03:20:37.355Z,4.78
2023-02-07T03:23:09.123Z,4.22
2023-02-07T03:25:39.318Z,5.60
2023-02-07T03:28:09.853Z,4.47
2023-02-07T03:30:39.387Z,5.90
2023-02-07T03:33:13.347Z,5.88
2023-02-07T03:36:08.685Z,4.07
2023-02-07T03:38:37.278Z,1.58
2023-02-07T03:41:17.081Z,7.63
2023-02-07T03:43:45.012Z,7.72
2023-02-07T03:46:12.837Z,9.98
2023-02-07T03:48:40.122Z,4.30
2023-02-07T03:51:07.686Z,5.07
2023-02-07T03:53:34.991Z,5.05
2023-02-07T03:56:02.576Z,6.40
2023-02-07T03:58:29.855Z,6.15
2023-02-07T04:00:57.608Z,4.03
2023-02-07T04:03:25.009Z,6.78
2023-02-07T04:05:52.773Z,6.07
2023-02-07T04:08:20.088Z,8.95
2023-02-07T04:10:57.589Z,7.15
2023-02-07T04:13:24.947Z,2.90
2023-02-07T04:15:52.705Z,4.03
2023-02-07T04:18:20.448Z,3.78
2023-02-07T04:20:48.344Z,9.23
2023-02-07T04:23:15.598Z,4.95
2023-02-07T04:25:43.188Z,8.77
2023-02-07T04:28:10.488Z,4.88
2023-02-07T04:30:38.060Z,6.68
2023-02-07T04:33:05.581Z,4.38
2023-02-07T04:35:33.087Z,6.22
2023-02-07T04:38:00.356Z,7.90
2023-02-07T04:40:27.913Z,4.53
2023-02-07T04:42:55.150Z,7.97
2023-02-07T04:45:22.808Z,11.90
2023-02-07T04:47:50.446Z,6.25
2023-02-07T04:50:18.830Z,5.55
2023-02-07T04:52:46.065Z,6.22
2023-02-07T04:55:13.707Z,7.78
2023-02-07T04:57:40.961Z,10.25
2023-02-07T05:00:09.320Z,6.22
2023-02-07T05:02:36.629Z,7.97
2023-02-07T05:05:04.268Z,9.23
2023-02-07T05:07:31.570Z,6.85
2023-02-07T05:09:59.204Z,5.60
2023-02-07T05:12:26.514Z,18.05
2023-02-07T05:14:54.050Z,6.85
2023-02-07T05:17:21.350Z,7.25
2023-02-07T05:19:48.904Z,6.93
2023-02-07T05:22:16.146Z,6.72
2023-02-07T05:24:44.017Z,7.63
2023-02-07T05:27:11.300Z,6.63
2023-02-07T05:29:38.835Z,5.72
2023-02-07T05:32:24.496Z,5.40
2023-02-07T05:34:51.994Z,8.18
2023-02-07T05:37:19.236Z,10.40
2023-02-07T05:39:46.801Z,10.35
2023-02-07T05:42:14.039Z,9.45
2023-02-07T05:44:41.740Z,6.07
2023-02-07T05:47:09.019Z,8.50
2023-02-07T05:49:37.544Z,9.48
2023-02-07T05:52:05.319Z,5.97
2023-02-07T05:54:32.848Z,9.70
2023-02-07T05:57:00.259Z,11.18
2023-02-07T05:59:27.821Z,10.68
2023-02-07T06:01:55.119Z,12.25
2023-02-07T06:04:22.707Z,10.13
2023-02-07T06:06:49.986Z,6.40
2023-02-07T06:09:17.584Z,10.65
2023-02-07T06:11:44.919Z,7.07
2023-02-07T06:14:12.479Z,7.80
2023-02-07T06:16:39.738Z,4.40
2023-02-07T06:19:09.907Z,6.50
2023-02-07T06:21:46.139Z,8.40
2023-02-07T06:24:16.037Z,7.32
2023-02-07T06:26:44.428Z,8.77
2023-02-07T06:29:12.366Z,7.43
2023-02-07T06:31:39.700Z,9.45
2023-02-07T06:34:07.747Z,8.27
2023-02-07T06:36:35.076Z,7.40
2023-02-07T06:39:03.603Z,7.88
2023-02-07T06:41:30.880Z,9.65
2023-02-07T06:43:58.484Z,14.05
2023-02-07T06:46:26.241Z,8.30
2023-02-07T06:48:53.817Z,8.40
2023-02-07T06:51:21.156Z,5.72
2023-02-07T06:53:48.845Z,8.35
2023-02-07T06:56:18.508Z,8.45
2023-02-07T06:58:46.346Z,7.65
2023-02-07T07:01:20.033Z,8.45
2023-02-07T07:03:47.952Z,9.48
2023-02-07T07:06:15.290Z,7.07
2023-02-07T07:08:42.888Z,12.88
2023-02-07T07:11:10.174Z,7.47
2023-02-07T07:13:37.853Z,8.10
2023-02-07T07:16:05.485Z,7.57
2023-02-07T07:18:33.073Z,8.77
2023-02-07T07:21:00.385Z,8.70
2023-02-07T07:23:27.937Z,6.63
2023-02-07T07:25:55.201Z,6.80
2023-02-07T07:28:22.776Z,7.55
2023-02-07T07:30:50.150Z,7.78
2023-02-07T07:33:17.848Z,6.80
2023-02-07T07:35:45.165Z,10.45
2023-02-07T07:38:12.915Z,10.15
2023-02-07T07:40:40.444Z,7.80
2023-02-07T07:43:08.167Z,5.90
2023-02-07T07:45:47.020Z,6.13
2023-02-07T07:48:14.666Z,10.05
2023-02-07T07:50:42.549Z,7.72
2023-02-07T07:53:10.262Z,12.10
2023-02-07T07:55:38.462Z,9.32
2023-02-07T07:58:06.032Z,10.35
2023-02-07T08:00:33.526Z,9.10
2023-02-07T08:03:01.109Z,9.45
2023-02-07T08:05:28.535Z,8.52
2023-02-07T08:07:56.185Z,10.35
2023-02-07T08:10:23.432Z,8.57
2023-02-07T08:12:50.994Z,10.52
2023-02-07T08:15:18.532Z,10.45
2023-02-07T08:17:46.155Z,10.32
2023-02-07T08:20:13.531Z,8.95
2023-02-07T08:22:41.142Z,10.02
2023-02-07T08:25:09.006Z,8.80
2023-02-07T08:27:37.226Z,10.40
2023-02-07T08:30:07.188Z,9.50
2023-02-07T08:32:35.059Z,7.38
2023-02-07T08:35:02.358Z,8.20
2023-02-07T08:37:30.048Z,9.05
2023-02-07T08:39:58.180Z,12.70
2023-02-07T08:42:25.818Z,7.13
2023-02-07T08:44:53.116Z,9.27
2023-02-07T08:47:20.662Z,8.07
2023-02-07T08:49:48.208Z,8.18
2023-02-07T08:52:15.769Z,6.60
2023-02-07T08:54:43.025Z,5.65
2023-02-07T08:57:10.669Z,8.05
2023-02-07T08:59:37.999Z,6.43
2023-02-07T09:02:05.882Z,5.85
2023-02-07T09:04:33.250Z,6.80
2023-02-07T09:07:00.784Z,6.90
2023-02-07T09:09:28.058Z,9.82
2023-02-07T09:11:55.599Z,7.28
2023-02-07T09:14:23.007Z,9.50
2023-02-07T09:16:50.671Z,7.68
2023-02-07T09:19:18.330Z,4.80
2023-02-07T09:21:45.896Z,8.82
2023-02-07T09:24:13.160Z,7.25
2023-02-07T09:26:40.810Z,6.72
2023-02-07T09:29:10.294Z,6.68
2023-02-07T09:31:38.038Z,6.45
2023-02-07T09:34:05.472Z,4.43
2023-02-07T09:36:33.803Z,6.00
2023-02-07T09:39:01.912Z,5.55
2023-02-07T09:41:59.932Z,8.27
2023-02-07T09:44:46.445Z,5.47
2023-02-07T09:47:21.835Z,6.22
2023-02-07T09:50:11.040Z,5.55
2023-02-07T09:52:53.511Z,6.32
2023-02-07T09:55:38.029Z,6.15
2023-02-07T09:58:14.776Z,5.03
2023-02-07T10:00:43.491Z,6.55
2023-02-07T10:03:19.141Z,6.63
2023-02-07T10:05:55.043Z,11.43
2023-02-07T10:08:26.421Z,10.82
2023-02-07T10:11:30.229Z,8.05
2023-02-07T10:14:22.009Z,7.28
2023-02-07T10:17:16.493Z,7.28
2023-02-07T10:20:23.784Z,7.53
2023-02-07T10:22:57.726Z,11.68
2023-02-07T10:25:49.816Z,7.50
2023-02-07T10:28:17.444Z,5.85
2023-02-07T10:30:52.590Z,8.13
2023-02-07T10:33:24.282Z,7.00
2023-02-07T10:35:53.646Z,7.03
2023-02-07T10:38:28.093Z,5.50
2023-02-07T10:40:57.710Z,7.47
2023-02-07T10:43:30.571Z,16.73
2023-02-07T10:46:10.200Z,12.82
2023-02-07T10:48:38.551Z,6.80
2023-02-07T10:51:26.678Z,8.85
2023-02-07T10:54:12.588Z,7.85
2023-02-07T10:56:57.780Z,6.07
2023-02-07T10:59:31.508Z,6.13
2023-02-07T11:01:59.637Z,6.55
2023-02-07T11:04:36.781Z,9.00
2023-02-07T11:07:07.692Z,5.25
2023-02-07T11:09:38.031Z,11.98
2023-02-07T11:12:15.523Z,6.20
2023-02-07T11:15:03.582Z,8.73
2023-02-07T11:17:34.668Z,10.57
2023-02-07T11:20:07.082Z,8.35
2023-02-07T11:22:35.037Z,4.53
2023-02-07T11:25:05.672Z,5.95
2023-02-07T11:27:39.709Z,5.80
2023-02-07T11:30:18.953Z,7.88
2023-02-07T11:32:59.429Z,7.70
2023-02-07T11:35:27.007Z,6.10
2023-02-07T11:38:04.845Z,8.40
2023-02-07T11:40:48.424Z,8.05
2023-02-07T11:43:18.462Z,6.60
2023-02-07T11:46:01.527Z,4.97
2023-02-07T11:48:34.008Z,5.72
2023-02-07T11:51:03.960Z,10.60
2023-02-07T11:53:49.932Z,8.57
2023-02-07T11:56:23.473Z,6.75
2023-02-07T11:58:53.078Z,8.07
2023-02-07T12:01:28.740Z,12.82
2023-02-07T12:04:01.125Z,8.25
2023-02-07T12:06:35.198Z,10.35
2023-02-07T12:09:05.370Z,10.25
2023-02-07T12:11:38.504Z,10.77
2023-02-07T12:14:33.078Z,9.65
2023-02-07T12:17:03.915Z,9.98
2023-02-07T12:19:35.248Z,12.20
2023-02-07T12:22:19.194Z,5.83
2023-02-07T12:25:11.131Z,11.60
2023-02-07T12:27:43.204Z,6.53
2023-02-07T12:30:36.288Z,7.13
2023-02-07T12:33:34.294Z,7.88
2023-02-07T12:36:37.556Z,7.18
2023-02-07T12:39:15.119Z,9.35
2023-02-07T12:41:57.487Z,8.35
2023-02-07T12:47:29.138Z,8.93
2023-02-07T12:50:14.398Z,8.82
2023-02-07T12:52:54.226Z,8.38
2023-02-07T12:56:11.251Z,7.95
2023-02-07T12:59:23.561Z,9.38
2023-02-07T13:01:53.771Z,10.25
2023-02-07T13:04:36.590Z,10.80
2023-02-07T13:07:30.371Z,10.50
2023-02-07T13:10:18.271Z,9.35
2023-02-07T13:13:11.998Z,10.65
2023-02-07T13:16:06.717Z,9.52
2023-02-07T13:18:33.888Z,10.07
2023-02-07T13:21:07.328Z,9.43
2023-02-07T13:23:40.182Z,15.02
2023-02-07T13:26:16.786Z,13.10
2023-02-07T13:28:56.281Z,8.60
2023-02-07T13:32:02.629Z,10.32
2023-02-07T13:34:37.326Z,13.32
2023-02-07T13:37:16.446Z,11.18
2023-02-07T13:40:03.222Z,9.00
2023-02-07T13:42:46.286Z,7.38
2023-02-07T13:45:13.662Z,9.77
2023-02-07T13:47:56.237Z,10.75
2023-02-07T13:50:38.889Z,9.13
2023-02-07T13:53:06.729Z,11.27
2023-02-07T13:55:38.287Z,12.13
2023-02-07T13:58:53.791Z,13.35
2023-02-07T14:01:27.814Z,12.80
2023-02-07T14:04:09.575Z,12.85
2023-02-07T14:07:01.998Z,7.57
2023-02-07T14:09:39.452Z,14.55
2023-02-07T14:12:21.090Z,12.32
2023-02-07T14:15:01.771Z,10.20
2023-02-07T14:17:30.440Z,12.98
2023-02-07T14:19:58.928Z,13.35
2023-02-07T14:22:52.476Z,15.90
2023-02-07T14:25:31.855Z,11.98
2023-02-07T14:28:05.274Z,12.52
2023-02-07T14:30:37.265Z,12.77
2023-02-07T14:33:14.211Z,8.52
2023-02-07T14:36:04.279Z,11.98
2023-02-07T14:38:41.180Z,10.20
2023-02-07T14:41:17.568Z,8.98
2023-02-07T14:43:56.846Z,14.93
2023-02-07T14:46:39.370Z,11.15
2023-02-07T14:49:23.737Z,11.73
2023-02-07T14:51:55.504Z,11.50
2023-02-07T14:54:36.522Z,17.40
2023-02-07T14:57:17.518Z,7.97
2023-02-07T14:59:59.071Z,17.13
2023-02-07T15:02:41.538Z,12.60
2023-02-07T15:05:28.451Z,12.07
2023-02-07T15:08:02.129Z,13.70
2023-02-07T15:10:36.792Z,15.48
2023-02-07T15:13:15.269Z,15.38
2023-02-07T15:15:52.553Z,15.63
2023-02-07T15:18:23.123Z,17.15
2023-02-07T15:21:00.528Z,18.25
2023-02-07T15:23:31.007Z,14.93
2023-02-07T15:26:05.944Z,21.05
2023-02-07T15:28:33.983Z,18.95
2023-02-07T15:31:14.207Z,17.92
2023-02-07T15:33:53.693Z,20.20
2023-02-07T15:36:35.016Z,21.38
2023-02-07T15:39:13.540Z,18.85
2023-02-07T15:41:41.039Z,19.02
2023-02-07T15:44:18.592Z,23.27
2023-02-07T15:46:54.820Z,19.25
2023-02-07T15:49:32.979Z,21.95
2023-02-07T15:52:34.562Z,23.75
2023-02-07T15:55:34.662Z,21.42
2023-02-07T15:58:04.016Z,18.30
2023-02-07T16:00:38.072Z,22.08
2023-02-07T16:03:08.396Z,23.38
2023-02-07T16:05:38.108Z,20.52
2023-02-07T16:08:27.131Z,20.83
2023-02-07T16:10:54.945Z,21.60
2023-02-07T16:13:23.144Z,19.95
2023-02-07T16:16:09.512Z,20.67
2023-02-07T16:18:46.635Z,19.77
2023-02-07T16:21:22.903Z,22.15
2023-02-07T16:24:04.809Z,20.30
2023-02-07T16:26:32.823Z,19.35
2023-02-07T16:29:00.301Z,23.67
2023-02-07T16:31:28.261Z,18.98
2023-02-07T16:33:55.556Z,23.98
2023-02-07T16:36:23.128Z,21.42
2023-02-07T16:38:50.639Z,21.65
2023-02-07T16:41:32.445Z,20.38
2023-02-07T16:44:01.302Z,16.45
2023-02-07T16:46:29.964Z,20.55
2023-02-07T16:48:57.803Z,21.10
2023-02-07T16:51:25.377Z,22.70
2023-02-07T16:53:52.644Z,22.10
2023-02-07T16:56:27.880Z,21.95
2023-02-07T16:58:55.379Z,22.30
2023-02-07T17:01:23.147Z,21.77
2023-02-07T17:03:50.846Z,22.08
2023-02-07T17:06:21.089Z,21.70
2023-02-07T17:08:49.991Z,24.70
2023-02-07T17:11:24.925Z,23.33
2023-02-07T17:13:56.902Z,20.75
2023-02-07T17:16:26.875Z,20.77
2023-02-07T17:18:54.290Z,24.58
2023-02-07T17:21:23.821Z,25.45
2023-02-07T17:23:51.381Z,25.38
2023-02-07T17:26:26.236Z,26.27
2023-02-07T17:28:55.080Z,25.05
2023-02-07T17:31:23.377Z,23.13
2023-02-07T17:33:51.741Z,27.27
2023-02-07T17:36:20.045Z,28.05
2023-02-07T17:38:47.340Z,34.88
2023-02-07T17:41:15.563Z,26.55
2023-02-07T17:43:42.869Z,30.42
2023-02-07T17:46:23.055Z,33.00
2023-02-07T17:48:51.437Z,26.75
2023-02-07T17:51:22.322Z,31.83
2023-02-07T17:53:50.014Z,26.23
2023-02-07T17:56:23.047Z,23.30
2023-02-07T17:58:51.383Z,23.02
2023-02-07T18:01:19.528Z,23.38
2023-02-07T18:03:48.024Z,23.08
2023-02-07T18:06:21.160Z,25.00
2023-02-07T18:08:48.632Z,21.77
2023-02-07T18:11:16.501Z,26.55
2023-02-07T18:13:47.083Z,21.83
2023-02-07T18:16:17.504Z,23.33
2023-02-07T18:18:45.028Z,23.65
2023-02-07T18:21:13.662Z,14.70
2023-02-07T18:23:43.143Z,16.13
2023-02-07T18:26:14.552Z,15.70
2023-02-07T18:28:43.809Z,13.20
2023-02-07T18:31:16.848Z,17.05
2023-02-07T18:33:44.784Z,14.30
2023-02-07T18:36:12.407Z,13.10
2023-02-07T18:38:40.244Z,11.27
2023-02-07T18:41:11.388Z,11.93
2023-02-07T18:43:40.535Z,14.15
2023-02-07T18:46:15.038Z,14.65
2023-02-07T18:48:45.064Z,12.75
2023-02-07T18:51:15.456Z,12.63
2023-02-07T18:53:43.534Z,13.30
2023-02-07T18:56:19.941Z,10.90
2023-02-07T18:58:47.752Z,12.48
2023-02-07T19:01:21.164Z,10.93
2023-02-07T19:03:54.442Z,12.18
2023-02-07T19:06:24.136Z,13.73
2023-02-07T19:08:51.652Z,14.13
2023-02-07T19:11:19.885Z,13.75
2023-02-07T19:13:47.808Z,12.48
2023-02-07T19:16:19.128Z,13.10
2023-02-07T19:18:48.089Z,8.37
2023-02-07T19:21:23.805Z,13.15
2023-02-07T19:23:51.371Z,9.85
2023-02-07T19:26:20.006Z,11.60
2023-02-07T19:28:47.342Z,12.88
2023-02-07T19:31:18.172Z,11.52
2023-02-07T19:33:50.649Z,12.32
2023-02-07T19:36:19.290Z,14.70
2023-02-07T19:38:48.797Z,11.35
2023-02-07T19:41:19.195Z,12.23
2023-02-07T19:43:47.248Z,11.65
2023-02-07T19:46:15.420Z,20.10
2023-02-07T19:48:43.638Z,10.93
2023-02-07T19:51:15.381Z,11.85
2023-02-07T19:53:45.148Z,15.90
2023-02-07T19:56:14.139Z,12.65
2023-02-07T19:58:45.031Z,11.35
2023-02-07T20:01:13.345Z,11.48
2023-02-07T20:03:41.641Z,13.05
2023-02-07T20:06:12.286Z,14.32
2023-02-07T20:08:41.001Z,13.77
2023-02-07T20:11:13.807Z,11.27
2023-02-07T20:13:43.573Z,13.32
2023-02-07T20:16:14.381Z,12.73
2023-02-07T20:18:42.306Z,14.77
2023-02-07T20:21:14.334Z,14.75
2023-02-07T20:23:47.044Z,16.80
2023-02-07T20:26:19.112Z,14.18
2023-02-07T20:28:47.055Z,16.70
2023-02-07T20:31:17.460Z,15.18
2023-02-07T20:33:45.730Z,14.73
2023-02-07T20:36:15.197Z,14.20
2023-02-07T20:38:44.914Z,15.48
2023-02-07T20:41:29.274Z,14.02
2023-02-07T20:44:05.050Z,15.65
2023-02-07T20:46:35.128Z,16.50
2023-02-07T20:49:08.322Z,14.40
2023-02-07T20:51:36.231Z,15.98
2023-02-07T20:54:05.544Z,13.90
2023-02-07T20:56:33.899Z,14.48
2023-02-07T20:59:01.614Z,16.95
2023-02-07T21:01:31.982Z,15.43
2023-02-07T21:04:02.144Z,20.25
2023-02-07T21:06:31.142Z,15.93
2023-02-07T21:09:02.847Z,18.58
2023-02-07T21:11:39.550Z,15.52
2023-02-07T21:14:19.624Z,16.52
2023-02-07T21:16:47.351Z,19.83
2023-02-07T21:19:15.188Z,19.65
2023-02-07T21:21:43.131Z,16.85
2023-02-07T21:24:10.595Z,16.92
2023-02-07T21:26:38.207Z,17.00
2023-02-07T21:29:06.985Z,16.25
2023-02-07T21:31:36.226Z,21.20
2023-02-07T21:34:05.363Z,18.05
2023-02-07T21:36:38.088Z,16.38
2023-02-07T21:39:10.413Z,15.75
2023-02-07T21:41:41.645Z,16.50
2023-02-07T21:44:09.980Z,21.13
2023-02-07T21:46:39.759Z,18.17
2023-02-07T21:49:11.068Z,14.25
2023-02-07T21:51:38.609Z,18.25
2023-02-07T21:54:07.534Z,18.48
2023-02-07T21:56:38.561Z,20.25
2023-02-07T21:59:08.601Z,18.88
2023-02-07T22:01:36.790Z,14.88
2023-02-07T22:04:06.138Z,19.42
2023-02-07T22:06:33.754Z,20.65
2023-02-07T22:09:02.735Z,19.42
2023-02-07T22:11:33.531Z,20.88
2023-02-07T22:14:01.992Z,25.75
2023-02-07T22:16:31.056Z,22.70
2023-02-07T22:18:59.878Z,22.85
2023-02-07T22:21:33.348Z,18.95
2023-02-07T22:24:01.989Z,22.10
2023-02-07T22:26:30.686Z,22.42
2023-02-07T22:29:01.844Z,23.45
2023-02-07T22:31:31.729Z,19.88
2023-02-07T22:34:02.251Z,19.02
2023-02-07T22:36:33.491Z,19.40
2023-02-07T22:39:02.797Z,20.03
2023-02-07T22:41:30.774Z,19.73
2023-02-07T22:43:58.503Z,18.80
2023-02-07T22:46:26.166Z,19.50
2023-02-07T22:48:54.242Z,18.70
2023-02-07T22:51:26.543Z,16.25
2023-02-07T22:56:26.682Z,18.67
2023-02-07T22:58:54.958Z,23.20
2023-02-07T23:01:31.755Z,19.85
2023-02-07T23:03:59.165Z,16.75
2023-02-07T23:06:27.003Z,20.38
2023-02-07T23:08:54.875Z,15.82
2023-02-07T23:11:23.656Z,18.75
2023-02-07T23:13:52.315Z,15.15
2023-02-07T23:16:23.190Z,19.70
2023-02-07T23:18:52.691Z,17.30
2023-02-07T23:21:22.151Z,16.70
2023-02-07T23:23:49.990Z,18.25
2023-02-07T23:26:20.376Z,18.15
2023-02-07T23:28:48.292Z,18.85
2023-02-07T23:31:17.635Z,19.00
2023-02-07T23:33:45.053Z,16.20
2023-02-07T23:36:13.224Z,20.98
2023-02-07T23:38:40.564Z,17.27
2023-02-07T23:41:08.524Z,16.45
2023-02-07T23:43:37.409Z,17.65
2023-02-07T23:46:06.590Z,17.45
2023-02-07T23:48:37.742Z,18.13
2023-02-07T23:51:07.002Z,20.15
2023-02-07T23:53:34.784Z,19.67
2023-02-07T23:56:04.219Z,17.95
2023-02-07T23:58:32.106Z,16.25
